ADDS METAR Data INFO
IDs: Format: Raw Decoded Include TAF

Data at: 0503 UTC 23 May 2017

KGLS 230452Z AUTO 01011KT 10SM OVC012 23/21 A2988 RMK AO2 SLP118 T02330206
KGLS 230352Z AUTO 36013KT 10SM OVC011 23/21 A2988 RMK AO2 SLP118 T02330211
KGLS 230252Z AUTO 35010KT 10SM OVC011 24/22 A2986 RMK AO2 SLP112 T02390217 53009
KGLS 230210Z AUTO 36014KT 10SM BKN012 BKN022 24/22 A2985 RMK AO2 T02440222
KGLS 230203Z AUTO 36013KT 10SM SCT012 BKN022 25/22 A2985 RMK AO2 T02500222
KGLS 230152Z AUTO 35010KT 10SM FEW011 SCT021 25/22 A2985 RMK AO2 SLP107 T02500222
KGLS 230130Z AUTO 35012KT 10SM FEW011 SCT021 24/22 A2984 RMK AO2 T02440222
KGLS 230052Z AUTO 36012KT 10SM SCT011 BKN021 25/22 A2984 RMK AO2 SLP103 T02500222
KGLS 230049Z AUTO 36012KT 10SM SCT011 BKN021 25/22 A2984 RMK AO2
KGLS 230026Z AUTO 36012KT 10SM SCT021 26/22 A2984 RMK AO2 T02560222
KGLS 230015Z AUTO 36012KT 10SM BKN021 26/23 A2983 RMK AO2 T02560228
KGLS 222352Z AUTO 35011KT 10SM FEW029 FEW055 26/22 A2984 RMK AO2 RAB17E42 SLP105 P0000 60000 T02560222 10283 20250 58013
KGLS 222327Z AUTO 35011KT 10SM -RA SCT028 SCT037 BKN060 25/22 A2985 RMK AO2 RAB17 P0000 T02500222
KGLS 222319Z AUTO 35010KT 10SM -RA BKN028 BKN037 25/22 A2986 RMK AO2 RAB17 P0000 T02500222
KGLS 222252Z 36011KT 10SM SCT032 BKN039 BKN055 25/22 A2987 RMK AO2 LTG DSNT W SLP113 T02500222
KGLS 222243Z 36010KT 10SM FEW026 BKN034 BKN055 25/22 A2987 RMK AO2 LTG DSNT W T02500222
KGLS 222152Z 36015G18KT 10SM SCT014 BKN020 OVC070 26/22 A2988 RMK AO2 SLP117 T02560222
KGLS 222147Z 35013KT 10SM FEW014 BKN026 OVC070 26/22 A2988 RMK AO2
KGLS 222104Z 21006KT 10SM FEW018 SCT024 BKN070 28/24 A2988 RMK AO2 T02780239
KGLS 222052Z 19007KT 10SM FEW013 SCT020 BKN025 28/24 A2989 RMK AO2 SLP120 T02830239 56025
KGLS 222017Z 18007KT 10SM BKN015 BKN020 BKN028 27/24 A2989 RMK AO2 T02720239
KGLS 221952Z 16007KT 10SM FEW013 28/24 A2990 RMK AO2 SLP125 T02780239
KGLS 221852Z 15011KT 10SM FEW025 FEW034 SCT075 27/23 A2993 RMK AO2 LTG DSNT E SLP133 T02720233
KGLS 221840Z 16011KT 10SM FEW028 SCT035 SCT075 26/23 A2993 RMK AO2 T02610228
KGLS 221819Z 18007KT 10SM SCT010 SCT016 OVC028 26/23 A2995 RMK AO2 T02560228
KGLS 221752Z VRB03KT 10SM OVC012 25/23 A2996 RMK AO2 RAE49 SLP145 P0077 60178 T02500233 10256 20239 55002
KGLS 221728Z 17007KT 3SM -RA BR SCT008 BKN013 OVC022 24/22 A2997 RMK AO2 LTG DSNT SE P0077 T02390222
KGLS 221725Z 18008KT 1SM RA BR BKN010 BKN015 OVC022 24/23 A2998 RMK AO2 LTG DSNT SE P0077 T02390228
KGLS 221711Z VRB04KT 1/4SM +RA FG BKN008 BKN011 OVC030 24/23 A2998 RMK AO2 LTG DSNT SE P0034 T02390233
KGLS 221705Z 1 1/4SM RA BR SCT009 BKN013 OVC032 24/23 A2997 RMK AO2 LTG DSNT SE P0015 T02440228
KGLS 221655Z 22011G23KT 4SM -RA BR FEW009 BKN013 OVC036 24/23 A2997 RMK AO2 P0001 T02440233
KGLS 221652Z 16011G23KT 4SM -RA BR SCT011 BKN017 OVC044 24/23 A2995 RMK AO2 TSB17E34 SLP143 P0020 T02440233
KGLS 221646Z 10017G23KT 4SM RA BR BKN011 BKN018 OVC050 24/23 A2995 RMK AO2 TSB17E34 P0019
KGLS 221634Z 12019G25KT 4SM -RA BR FEW010 BKN043 OVC050 25/24 A2996 RMK AO2 TSB17E34 P0017 T02500239
KGLS 221627Z 08013KT 2 1/2SM +TSRA BR FEW014 OVC046 25/24 A2995 RMK AO2 VIS 2V3 TSB17 P0017 T02500239
KGLS 221617Z 11015KT 1 3/4SM +TSRA BR BKN048 BKN080 OVC100 25/24 A2997 RMK AO2 TSB17 P0011 T02500239
KGLS 221552Z 12015KT 3SM RA BR FEW009 BKN090 OVC110 25/24 A2997 RMK AO2 PK WND 13026/1527 SLP147 P0024 T02500239
KGLS 221536Z 12018G26KT 3SM RA BR FEW048 BKN090 OVC110 25/24 A2996 RMK AO2 PK WND 13026/1527 P0019 T02500239
KGLS 221517Z 13015G26KT 2SM RA BR FEW008 BKN080 OVC100 25/24 A2999 RMK AO2 PK WND 13026/1508 P0012 T02500239
KGLS 221511Z 13017G26KT 1 3/4SM +RA BR FEW010 BKN055 OVC100 25/24 A2998 RMK AO2 PK WND 13026/1508 P0009 T02500239
KGLS 221452Z 13019KT 4SM RA BR SCT075 BKN100 OVC120 25/24 A2998 RMK AO2 SLP151 P0019 60057 T02500239 53000
KGLS 221417Z 12018G24KT 3SM RA BR FEW060 BKN080 OVC100 25/23 A2997 RMK AO2 P0012 T02500233
KGLS 221352Z 13022G28KT 2 1/2SM +RA BR BKN090 OVC110 25/23 A2997 RMK AO2 PK WND 13029/1333 SLP150 P0022 T02500233
KGLS 221252Z 12019G25KT 4SM RA BR FEW009 BKN095 OVC110 24/23 A2997 RMK AO2 PK WND 13027/1222 SLP147 P0016 T02440233
KGLS 221152Z 12020G26KT 6SM RA BR SCT012 BKN055 OVC110 24/23 A2998 RMK AO2 PK WND 12029/1120 LTG DSNT NE SLP151 P0022 60055 70129 T02440233 10261 20239 53006
KGLS 221134Z 12018KT 7SM -RA SCT011 BKN050 OVC110 24/22 A2996 RMK AO2 PK WND 12029/1120 LTG DSNT ALQDS P0019 T02390222
KGLS 221126Z 11020G29KT 5SM RA BR SCT009 BKN015 OVC100 24/22 A2995 RMK AO2 PK WND 12029/1120 LTG DSNT NW-E P0018 T02390222
KGLS 221119Z 11022G29KT 5SM RA BR SCT010 BKN015 OVC028 24/23 A2995 RMK AO2 PK WND 10029/1118 LTG DSNT ALQDS P0016 T02440233
KGLS 221106Z 11021G27KT 3SM VCTS +RA BR FEW009 SCT013 OVC026 24/23 A2997 RMK AO2 PK WND 12028/1055 LTG DSNT E AND SE AND NW P0013 T02440228
KGLS 221052Z 11022G32KT 1 1/2SM VCTS +RA BR FEW012 BKN028 OVC060 24/23 A2996 RMK AO2 PK WND 12034/1033 LTG DSNT E AND SE RAB20 SLP146 P0032 T02390228
KGLS 221046Z 12026G33KT 2 1/2SM VCTS +RA BR FEW013 BKN032 OVC060 24/23 A2997 RMK AO2 PK WND 12034/1033 LTG DSNT SE AND S RAB20 P0016
KGLS 220952Z AUTO 11021G30KT 10SM FEW013 BKN035 OVC120 24/22 A2996 RMK AO2 PK WND 11032/0855 LTG DSNT S RAB02E22 SLP146 P0001 T02440217
KGLS 220945Z AUTO 11023G30KT 10SM SCT013 BKN035 OVC055 24/22 A2996 RMK AO2 PK WND 11032/0855 LTG DSNT S RAB02E22 P0001 T02440217
KGLS 220938Z AUTO 12020G30KT 10SM BKN013 BKN033 BKN120 24/22 A2997 RMK AO2 PK WND 11032/0855 LTG DSNT S RAB02E22 P0001 T02440222
KGLS 220852Z AUTO 11023G32KT 10SM FEW012 SCT070 26/23 A2996 RMK AO2 PK WND 12034/0840 SLP145 T02560228 58013
KGLS 220837Z AUTO 11023G29KT 10SM SCT014 BKN070 26/23 A2997 RMK AO2 PK WND 12032/0811 T02560228
KGLS 220752Z AUTO 11016G26KT 10SM BKN014 OVC022 26/23 A3000 RMK AO2 PK WND 12029/0707 LTG DSNT S SLP159 T02560228
KGLS 220702Z AUTO 10022G28KT 10SM BKN012 OVC028 25/23 A3000 RMK AO2 PK WND 10028/0701 T02500228
KGLS 220652Z AUTO 08017G24KT 10SM SCT012 BKN020 OVC028 26/23 A3001 RMK AO2 PK WND 10027/0633 SLP161 T02560228
KGLS 220634Z AUTO 10021G27KT 10SM FEW019 BKN028 BKN036 26/22 A3002 RMK AO2 PK WND 10027/0633 T02610217
KGLS 220552Z AUTO 07016G23KT 10SM FEW041 26/23 A3000 RMK AO2 LTG DSNT SE RAE0454 SLP157 P0000 60000 T02610228 10272 20244 403000228 58014
KGLS 220452Z AUTO 06014KT 10SM -RA FEW044 SCT085 BKN110 25/23 A3002 RMK AO2 PK WND 08026/0418 LTG DSNT NE AND S RAB0353E18B40 SLP167 P0000 T02500228
KGLS 220450Z AUTO 06013KT 10SM -RA FEW040 SCT070 BKN110 25/23 A3002 RMK AO2 PK WND 08026/0418 LTG DSNT NE AND S RAB0353E18B40 P0000
KGLS 220435Z AUTO 07014G21KT 10SM VCTS FEW045 BKN075 BKN095 24/23 A3001 RMK AO2 PK WND 08026/0418 LTG DSNT NE RAB0353E18 P0000 T02440228
KGLS 220416Z AUTO 08018G24KT 10SM -RA SCT013 BKN042 OVC110 24/23 A3003 RMK AO2 RAB0353 P0000 T02440228
KGLS 220352Z AUTO 06016G23KT 10SM SCT009 OVC016 25/23 A3004 RMK AO2 LTG DSNT NE AND E RAB32E51 SLP171 P0000 T02500233
KGLS 220252Z AUTO 05010KT 10SM BKN024 BKN038 OVC050 27/24 A3002 RMK AO2 SLP166 T02670239 51015
KGLS 220152Z AUTO 05010KT 10SM FEW011 27/24 A3002 RMK AO2 SLP165 T02670239
KGLS 220144Z AUTO 06009KT 10SM BKN011 26/24 A3002 RMK AO2 T02610239
KGLS 220052Z AUTO 07014KT 10SM FEW009 26/24 A2998 RMK AO2 SLP151 T02610239
KGLS 212352Z AUTO 05013KT 10SM FEW015 FEW042 27/23 A2997 RMK AO2 PK WND 04026/2307 SLP149 60002 T02670233 10300 20267 56009
KGLS 212325Z AUTO 05013KT 10SM FEW014 BKN021 BKN035 27/23 A2998 RMK AO2 PK WND 04026/2307 T02670233
KGLS 212314Z AUTO 05016G26KT 10SM BKN014 BKN019 BKN024 27/23 A2997 RMK AO2 PK WND 04026/2307 LTG DSNT N T02670233
KGLS 212252Z 07011KT 7SM SCT015 BKN021 29/25 A2998 RMK AO2 LTG DSNT N SLP153 T02890250
KGLS 212222Z 08008KT 7SM SCT014 SCT022 29/24 A2998 RMK AO2 T02890244
KGLS 212152Z 10004KT 7SM BKN012 29/26 A2998 RMK AO2 LTG DSNT N SLP151 T02890256
KGLS 212052Z 13007KT 7SM BKN012 29/26 A3000 RMK AO2 SLP159 60002 T02890256 55013
KGLS 211952Z 15007KT 10SM FEW011 29/25 A2996 RMK AO2 SLP145 T02940250
KGLS 211852Z VRB03KT 10SM FEW011 SCT022 29/26 A2999 RMK AO2 RAE36 PRESFR SLP154 P0002 T02940256
KGLS 211802Z 03005KT 3SM -RA BR FEW034 BKN060 OVC075 27/25 A3004 RMK AO2 LTG DSNT N-E P0002 T02720250
KGLS 211752Z 11005KT 2 1/2SM -RA SCT012 BKN050 OVC070 27/24 A3004 RMK AO2 LTG DSNT N-SE RAE1656B44 SLP171 P0005 60072 T02720244 10300 20228 51007


Page loaded:  05:03 UTC  |   10:03 PM Pacific  |   11:03 PM Mountain  |   12:03 AM Central  |   01:03 AM Eastern

 

ADVISORIES

FORECASTS

FORECASTS

OBSERVATIONS

USER TOOLS

ABOUT US